Time;durP1;ratioP1;P1;durP2;ratioP2;P2;SDS_P1;SDS_P2;PMS_P1;PMS_P2;Temp;Humidity;BMP_temperature;BMP_pressure;BME280_temperature;BME280_humidity;BME280_pressure;Samples;Min_cycle;Max_cycle;Signal;HPM_P1;HPM_P2
2022/04/29 00:01:24;;;;;;;2.27;1.70;;;16.10;99.90;;;;;;5034121;28;20217;-90
2022/04/29 00:04:01;;;;;;;1.70;1.60;;;15.90;99.90;;;;;;5035255;28;20220;-91
2022/04/29 00:06:34;;;;;;;2.63;1.93;;;15.30;99.90;;;;;;5035187;28;20209;-91
2022/04/29 00:09:12;;;;;;;2.33;1.80;;;15.20;99.90;;;;;;5036330;28;20214;-91
2022/04/29 00:11:47;;;;;;;1.90;1.70;;;14.90;99.90;;;;;;5034890;28;20240;-90
2022/04/29 00:14:23;;;;;;;3.90;1.60;;;15.00;99.90;;;;;;4998800;28;20202;-92
2022/04/29 00:16:55;;;;;;;13.90;1.87;;;15.00;99.90;;;;;;5324235;23;20236;-92
2022/04/29 00:19:30;;;;;;;2.67;1.77;;;15.00;99.90;;;;;;5033292;28;20209;-91
2022/04/29 00:22:03;;;;;;;2.40;1.57;;;15.20;99.90;;;;;;5035761;28;20216;-90
2022/04/29 00:35:16;;;;;;;4.03;1.33;;;14.10;99.90;;;;;;5074395;28;20242;-89
2022/04/29 00:55:33;;;;;;;2.50;1.40;;;13.20;99.90;;;;;;5069019;28;20264;-91
2022/04/29 00:58:12;;;;;;;1.73;1.50;;;13.10;99.90;;;;;;5071143;28;20219;-91
2022/04/29 01:00:44;;;;;;;2.37;1.30;;;13.00;99.90;;;;;;5071849;28;20234;-91
2022/04/29 01:03:17;;;;;;;2.03;1.50;;;13.00;99.90;;;;;;5071147;28;20262;-91
2022/04/29 01:05:51;;;;;;;2.00;1.63;;;13.00;99.90;;;;;;5071012;28;20208;-91
2022/04/29 01:08:22;;;;;;;2.57;1.60;;;13.00;99.90;;;;;;5071948;28;20228;-91
2022/04/29 01:10:58;;;;;;;4.00;1.73;;;13.00;99.90;;;;;;5068351;28;20208;-91
2022/04/29 01:13:40;;;;;;;4.87;1.67;;;12.90;99.90;;;;;;5072463;28;20199;-91
2022/04/29 01:16:16;;;;;;;2.77;1.53;;;12.90;99.90;;;;;;5073833;28;20204;-90
2022/04/29 01:29:36;;;;;;;2.20;1.70;;;12.60;99.90;;;;;;5072572;28;20192;-90
2022/04/29 01:32:11;;;;;;;3.13;1.73;;;12.50;99.90;;;;;;5060937;28;20200;-90
2022/04/29 01:34:44;;;;;;;1.70;1.60;;;12.50;99.90;;;;;;5070426;28;20184;-90
2022/04/29 01:37:16;;;;;;;1.80;1.60;;;12.40;99.90;;;;;;5072539;28;20204;-91
2022/04/29 01:39:48;;;;;;;2.43;1.70;;;12.40;99.90;;;;;;5074086;28;20223;-91
2022/04/29 01:42:27;;;;;;;2.43;1.60;;;12.40;99.90;;;;;;5076242;28;20185;-91
2022/04/29 01:45:12;;;;;;;1.43;1.33;;;12.40;99.90;;;;;;5076169;28;20227;-91
2022/04/29 01:47:44;;;;;;;2.83;1.60;;;12.30;99.90;;;;;;5071479;28;20212;-91
2022/04/29 01:50:17;;;;;;;2.90;1.67;;;12.30;99.90;;;;;;5072811;28;20211;-90
2022/04/29 01:52:50;;;;;;;2.50;1.87;;;12.20;99.90;;;;;;5071598;28;20212;-91
2022/04/29 01:58:09;;;;;;;3.03;1.60;;;12.10;99.90;;;;;;5068881;28;20265;-91
2022/04/29 02:00:41;;;;;;;2.60;1.60;;;12.00;99.90;;;;;;5057173;28;20201;-91
2022/04/29 02:03:13;;;;;;;3.20;1.70;;;11.90;99.90;;;;;;5067904;28;20212;-91
2022/04/29 02:05:48;;;;;;;1.40;1.30;;;11.90;99.90;;;;;;5066981;28;20208;-91
2022/04/29 02:08:27;;;;;;;1.97;1.63;;;11.80;99.90;;;;;;5072627;28;20215;-91
2022/04/29 02:10:59;;;;;;;1.37;1.27;;;11.80;99.90;;;;;;5069504;28;20235;-91
2022/04/29 02:13:33;;;;;;;2.67;1.50;;;11.80;99.90;;;;;;5070347;28;20196;-91
2022/04/29 02:16:04;;;;;;;2.43;1.40;;;11.70;99.90;;;;;;5067294;28;20250;-91
2022/04/29 02:18:37;;;;;;;2.37;1.50;;;11.70;99.90;;;;;;5057639;28;20224;-91
2022/04/29 02:21:09;;;;;;;1.97;1.77;;;11.60;99.90;;;;;;5071316;28;20199;-91
2022/04/29 02:23:41;;;;;;;2.33;1.50;;;11.60;99.90;;;;;;5070233;28;20216;-91
2022/04/29 02:26:15;;;;;;;2.50;1.60;;;11.60;99.90;;;;;;5318621;23;20246;-92
2022/04/29 02:28:49;;;;;;;1.77;1.53;;;11.50;99.90;;;;;;5065732;28;20204;-91
2022/04/29 02:31:25;;;;;;;1.60;1.50;;;11.50;99.90;;;;;;5067957;28;20208;-91
2022/04/29 02:34:00;;;;;;;1.80;1.63;;;11.50;99.90;;;;;;5058613;28;20238;-91
2022/04/29 02:36:33;;;;;;;2.73;1.80;;;11.40;99.90;;;;;;5066081;28;20252;-91
2022/04/29 02:39:04;;;;;;;2.10;1.50;;;11.40;99.90;;;;;;5067639;28;20236;-91
2022/04/29 02:41:36;;;;;;;3.77;2.00;;;11.40;99.90;;;;;;5069875;28;20200;-91
2022/04/29 02:44:11;;;;;;;3.53;1.57;;;11.40;99.90;;;;;;5070545;28;20219;-91
2022/04/29 02:47:06;;;;;;;2.00;1.80;;;11.40;99.90;;;;;;5069731;28;20239;-91
2022/04/29 02:49:42;;;;;;;3.53;1.70;;;11.30;99.90;;;;;;5077742;28;20254;-91
2022/04/29 02:52:15;;;;;;;1.70;1.60;;;11.30;99.90;;;;;;5078422;28;20648;-90
2022/04/29 02:54:48;;;;;;;3.00;1.73;;;11.10;99.90;;;;;;5077195;28;20196;-92
2022/04/29 02:57:22;;;;;;;1.67;1.40;;;11.00;99.90;;;;;;5073912;28;20212;-92
2022/04/29 02:59:56;;;;;;;3.13;1.83;;;11.00;99.90;;;;;;5076443;28;20259;-90
2022/04/29 03:02:28;;;;;;;3.90;1.67;;;11.00;99.90;;;;;;5080204;28;20195;-90
2022/04/29 03:05:00;;;;;;;1.60;1.50;;;10.90;99.90;;;;;;5079058;28;20211;-89
2022/04/29 03:07:33;;;;;;;1.70;1.60;;;10.90;99.90;;;;;;5078863;28;20200;-91
2022/04/29 03:10:06;;;;;;;2.07;1.63;;;10.90;99.90;;;;;;5079410;28;20184;-90
2022/04/29 03:12:40;;;;;;;2.07;1.50;;;10.80;99.90;;;;;;5074720;28;20309;-90
2022/04/29 03:15:17;;;;;;;2.53;2.20;;;10.80;99.90;;;;;;5074731;28;20212;-89
2022/04/29 03:20:39;;;;;;;2.63;1.87;;;10.60;99.90;;;;;;5073607;28;20240;-90
2022/04/29 03:23:12;;;;;;;4.13;2.13;;;10.50;99.90;;;;;;5071795;28;20226;-91
2022/04/29 03:25:58;;;;;;;3.00;2.10;;;10.50;99.90;;;;;;5053107;28;20239;-91
2022/04/29 03:28:30;;;;;;;3.17;2.40;;;10.50;99.90;;;;;;5051417;28;20212;-91
2022/04/29 03:31:07;;;;;;;2.10;1.90;;;10.50;99.90;;;;;;5051076;28;20241;-91
2022/04/29 03:33:42;;;;;;;2.50;2.03;;;10.40;99.90;;;;;;5054219;28;20619;-91
2022/04/29 03:36:16;;;;;;;3.90;2.00;;;10.30;99.90;;;;;;5051762;28;20223;-91
2022/04/29 03:38:48;;;;;;;3.83;2.43;;;10.30;99.90;;;;;;5034433;28;20240;-90
2022/04/29 03:44:25;;;;;;;2.40;2.03;;;10.20;99.90;;;;;;5042940;28;20292;-89
2022/04/29 03:46:59;;;;;;;3.70;2.03;;;10.20;99.90;;;;;;5051474;28;20232;-90
2022/04/29 03:49:40;;;;;;;1.77;1.53;;;10.20;99.90;;;;;;5050442;28;20671;-90
2022/04/29 03:52:11;;;;;;;3.73;2.20;;;10.00;99.90;;;;;;5050573;28;20212;-90
2022/04/29 03:54:44;;;;;;;3.07;2.20;;;9.90;99.90;;;;;;5052237;28;20212;-89
2022/04/29 03:57:16;;;;;;;3.33;2.20;;;9.80;99.90;;;;;;5056126;28;20231;-93
2022/04/29 03:59:48;;;;;;;3.17;1.90;;;9.80;99.90;;;;;;5046598;28;20240;-91
2022/04/29 04:02:23;;;;;;;4.63;2.33;;;9.70;99.90;;;;;;5048928;28;20264;-90
2022/04/29 04:04:55;;;;;;;2.30;1.90;;;9.70;99.90;;;;;;5051623;28;20203;-90
2022/04/29 04:07:26;;;;;;;2.40;2.20;;;9.70;99.90;;;;;;5049501;28;20213;-91
2022/04/29 04:09:58;;;;;;;3.40;2.10;;;9.60;99.90;;;;;;5050326;28;20208;-91
2022/04/29 04:12:38;;;;;;;2.33;1.80;;;9.60;99.90;;;;;;5049573;28;20247;-90
2022/04/29 04:15:12;;;;;;;2.00;1.80;;;9.60;99.90;;;;;;5043703;28;20205;-91
2022/04/29 04:17:50;;;;;;;3.40;2.23;;;9.60;99.90;;;;;;5048888;28;20216;-90
2022/04/29 04:20:22;;;;;;;2.10;1.90;;;9.60;99.90;;;;;;5047741;28;20220;-90
2022/04/29 04:22:55;;;;;;;3.70;2.37;;;9.50;99.90;;;;;;5051636;28;20632;-91
2022/04/29 04:25:30;;;;;;;3.23;2.50;;;9.50;99.90;;;;;;5052494;28;20208;-90
2022/04/29 04:28:03;;;;;;;3.27;2.50;;;9.50;99.90;;;;;;5051714;28;20212;-88
2022/04/29 04:30:35;;;;;;;3.80;3.43;;;9.50;99.90;;;;;;5041359;28;20224;-90
2022/04/29 04:33:08;;;;;;;3.20;2.57;;;9.60;99.90;;;;;;5044885;28;20235;-90
2022/04/29 04:35:39;;;;;;;3.23;2.20;;;9.60;99.90;;;;;;5070865;28;20208;-89
2022/04/29 04:38:11;;;;;;;2.40;1.90;;;9.70;99.90;;;;;;5060324;28;20728;-90
2022/04/29 04:40:43;;;;;;;2.40;1.77;;;9.70;99.90;;;;;;5058361;28;20248;-90
2022/04/29 04:43:20;;;;;;;2.50;2.13;;;9.80;99.90;;;;;;5058969;28;20265;-90
2022/04/29 04:45:52;;;;;;;3.23;2.50;;;9.60;99.90;;;;;;5058650;28;20243;-90
2022/04/29 04:48:26;;;;;;;3.30;2.50;;;9.60;99.90;;;;;;5063662;28;20200;-90
2022/04/29 04:51:01;;;;;;;3.70;2.40;;;9.40;99.90;;;;;;5058677;28;20311;-90
2022/04/29 04:53:33;;;;;;;3.50;2.50;;;9.30;99.90;;;;;;5060423;28;20515;-89
2022/04/29 04:56:05;;;;;;;3.77;2.60;;;9.10;99.90;;;;;;5059266;28;20379;-89
2022/04/29 04:58:36;;;;;;;3.70;2.47;;;9.10;99.90;;;;;;5058719;28;20211;-90
2022/04/29 05:01:07;;;;;;;3.33;2.30;;;9.00;99.90;;;;;;5073555;28;20258;-88
2022/04/29 05:03:41;;;;;;;3.20;2.57;;;9.00;99.90;;;;;;5073694;28;20185;-89
2022/04/29 05:06:12;;;;;;;3.63;3.00;;;9.00;99.90;;;;;;5073064;28;20204;-89
2022/04/29 05:08:44;;;;;;;2.90;2.37;;;9.00;99.90;;;;;;5073223;28;20592;-88
2022/04/29 05:11:15;;;;;;;3.50;2.20;;;9.00;99.90;;;;;;5068503;28;20231;-90
2022/04/29 05:14:06;;;;;;;3.13;2.50;;;9.00;99.90;;;;;;5061372;28;20641;-90
2022/04/29 05:16:37;;;;;;;3.03;2.30;;;8.90;99.90;;;;;;5059316;28;20267;-90
2022/04/29 05:19:11;;;;;;;3.93;2.37;;;8.90;99.90;;;;;;5063681;28;20639;-89
2022/04/29 05:21:42;;;;;;;2.57;2.20;;;8.90;99.90;;;;;;5060011;28;20235;-90
2022/04/29 05:24:13;;;;;;;2.87;2.40;;;8.90;99.90;;;;;;5057003;28;20666;-90
2022/04/29 05:26:44;;;;;;;3.80;2.60;;;8.90;99.90;;;;;;5037788;28;20686;-90
2022/04/29 05:29:15;;;;;;;3.83;2.40;;;8.90;99.90;;;;;;5037584;28;20209;-89
2022/04/29 05:31:48;;;;;;;3.87;2.60;;;8.90;99.90;;;;;;5050999;28;20208;-90
2022/04/29 05:34:21;;;;;;;3.60;2.60;;;8.80;99.90;;;;;;5057738;28;20208;-89
2022/04/29 05:36:52;;;;;;;3.13;2.50;;;8.80;99.90;;;;;;5056893;28;20666;-90
2022/04/29 05:42:28;;;;;;;4.83;3.00;;;8.60;99.90;;;;;;5057671;28;20240;-90
2022/04/29 05:45:09;;;;;;;3.00;2.70;;;8.60;99.90;;;;;;5057142;28;20231;-89
2022/04/29 05:47:40;;;;;;;3.73;2.93;;;8.60;99.90;;;;;;5056489;28;20208;-90
2022/04/29 05:50:19;;;;;;;5.03;2.60;;;8.70;99.90;;;;;;5061695;28;20224;-90
2022/04/29 05:52:50;;;;;;;4.80;3.00;;;8.80;99.90;;;;;;5058344;28;20204;-90
2022/04/29 05:55:22;;;;;;;3.27;2.67;;;8.90;99.90;;;;;;5057887;28;20295;-90
2022/04/29 05:58:13;;;;;;;4.57;2.70;;;8.90;99.90;;;;;;5057248;28;20197;-90
2022/04/29 06:00:45;;;;;;;3.57;2.57;;;8.90;99.90;;;;;;5042337;28;20240;-90
2022/04/29 06:03:17;;;;;;;2.50;2.30;;;8.90;99.90;;;;;;5066110;28;20266;-90
2022/04/29 06:06:01;;;;;;;2.53;2.33;;;8.90;99.90;;;;;;5071379;28;20218;-88
2022/04/29 06:08:33;;;;;;;2.57;2.20;;;8.80;99.90;;;;;;5065559;28;20204;-90
2022/04/29 06:11:05;;;;;;;3.50;2.53;;;8.80;99.90;;;;;;5061662;28;20209;-90
2022/04/29 06:13:37;;;;;;;3.70;2.30;;;8.80;99.90;;;;;;5062932;28;20295;-90
2022/04/29 06:16:11;;;;;;;3.00;2.27;;;8.90;99.90;;;;;;5059961;28;20188;-90
2022/04/29 06:18:42;;;;;;;2.50;2.30;;;8.90;99.90;;;;;;5058752;28;20227;-90
2022/04/29 06:21:16;;;;;;;2.97;2.30;;;8.90;99.90;;;;;;5039151;28;20667;-90
2022/04/29 06:23:50;;;;;;;3.70;2.83;;;8.90;99.90;;;;;;5044001;28;20258;-90
2022/04/29 06:26:21;;;;;;;2.47;2.27;;;8.90;99.90;;;;;;5041808;28;20285;-90
2022/04/29 06:28:52;;;;;;;3.50;2.90;;;8.70;99.90;;;;;;5041000;28;20204;-90
2022/04/29 06:31:23;;;;;;;4.17;2.70;;;8.80;99.90;;;;;;5047480;28;20227;-90
2022/04/29 06:33:56;;;;;;;3.93;2.67;;;8.70;99.90;;;;;;5042764;28;20242;-90
2022/04/29 06:36:29;;;;;;;2.93;2.50;;;8.70;99.90;;;;;;5041852;28;20215;-90
2022/04/29 06:39:01;;;;;;;3.00;2.70;;;8.80;99.90;;;;;;5048022;28;20208;-90
2022/04/29 06:41:32;;;;;;;4.37;2.77;;;8.80;99.90;;;;;;5059096;28;20221;-90
2022/04/29 06:44:04;;;;;;;4.83;2.67;;;8.70;99.90;;;;;;5058517;28;20243;-90
2022/04/29 06:46:37;;;;;;;2.93;2.60;;;8.80;99.90;;;;;;5060306;28;20244;-90
2022/04/29 06:49:09;;;;;;;2.83;2.60;;;8.80;99.90;;;;;;5059638;28;20193;-91
2022/04/29 06:51:42;;;;;;;3.73;2.90;;;8.80;99.90;;;;;;5060015;28;20192;-90
2022/04/29 06:54:13;;;;;;;3.20;2.87;;;8.70;99.90;;;;;;5059749;28;20215;-91
2022/04/29 06:56:45;;;;;;;3.03;2.43;;;8.70;99.90;;;;;;5059573;28;20204;-90
2022/04/29 06:59:18;;;;;;;2.63;2.03;;;8.70;99.90;;;;;;5070698;28;20205;-90
2022/04/29 07:01:49;;;;;;;3.10;2.50;;;8.70;99.90;;;;;;5053969;28;20249;-89
2022/04/29 07:04:25;;;;;;;3.87;2.20;;;8.70;99.90;;;;;;5055021;28;20209;-90
2022/04/29 07:06:59;;;;;;;3.23;2.53;;;8.60;99.90;;;;;;5057660;28;20207;-90
2022/04/29 07:09:30;;;;;;;3.00;2.53;;;8.50;99.90;;;;;;5053668;28;20213;-89
2022/04/29 07:12:21;;;;;;;3.57;2.67;;;8.60;99.90;;;;;;5055028;28;20232;-90
2022/04/29 07:14:54;;;;;;;3.33;3.03;;;8.50;99.90;;;;;;5054288;28;20197;-90
2022/04/29 07:17:25;;;;;;;3.63;2.73;;;8.40;99.90;;;;;;5056702;28;20208;-90
2022/04/29 07:19:56;;;;;;;2.97;2.60;;;8.40;99.90;;;;;;5062904;28;20245;-90
2022/04/29 07:22:32;;;;;;;3.17;2.77;;;8.40;99.90;;;;;;5078532;28;20340;-90
2022/04/29 07:25:03;;;;;;;5.83;3.07;;;8.50;99.90;;;;;;5073966;28;20211;-90
2022/04/29 07:27:35;;;;;;;4.03;2.90;;;8.50;99.90;;;;;;5073632;28;20262;-90
2022/04/29 07:30:07;;;;;;;4.23;2.93;;;8.40;99.90;;;;;;5104479;23;20248;-90
2022/04/29 07:32:39;;;;;;;6.03;2.70;;;8.40;99.90;;;;;;5046090;28;20209;-91
2022/04/29 07:43:36;;;;;;;4.27;2.90;;;8.20;99.90;;;;;;5042794;28;20581;-90
2022/04/29 07:46:10;;;;;;;3.37;2.80;;;8.30;99.90;;;;;;5042353;28;20296;-90
2022/04/29 07:48:41;;;;;;;3.53;2.87;;;8.30;99.90;;;;;;5041025;28;20232;-91
2022/04/29 07:51:12;;;;;;;3.73;2.90;;;8.30;99.90;;;;;;5041953;28;20209;-90
2022/04/29 07:53:46;;;;;;;5.30;2.90;;;8.40;99.90;;;;;;5041537;28;20212;-90
2022/04/29 07:56:17;;;;;;;3.73;3.27;;;8.40;99.90;;;;;;5041965;28;20259;-90
2022/04/29 07:58:48;;;;;;;4.00;2.80;;;8.40;99.90;;;;;;5040858;28;20274;-90
2022/04/29 08:01:20;;;;;;;3.70;3.00;;;8.40;99.90;;;;;;5041366;28;20240;-90
2022/04/29 08:03:52;;;;;;;2.93;2.67;;;8.40;99.90;;;;;;5041391;28;20213;-90
2022/04/29 08:06:25;;;;;;;3.37;3.00;;;8.40;99.90;;;;;;5041314;28;20209;-90
2022/04/29 08:09:19;;;;;;;3.33;2.87;;;8.40;99.90;;;;;;5039911;28;20211;-90
2022/04/29 08:11:50;;;;;;;3.93;3.07;;;8.40;99.90;;;;;;5041256;28;20201;-90
2022/04/29 08:14:28;;;;;;;3.50;3.20;;;8.40;99.90;;;;;;5040476;28;20227;-90
2022/04/29 08:17:19;;;;;;;5.43;3.30;;;8.40;99.90;;;;;;5040767;28;20553;-91
2022/04/29 08:19:51;;;;;;;4.87;3.40;;;8.30;99.90;;;;;;5044499;28;20233;-90
2022/04/29 08:22:23;;;;;;;3.20;2.90;;;8.30;99.90;;;;;;5058364;28;20232;-90
2022/04/29 08:24:57;;;;;;;3.33;2.90;;;8.30;99.90;;;;;;5065116;28;20204;-90
2022/04/29 08:27:29;;;;;;;3.77;3.10;;;8.20;99.90;;;;;;5063608;28;20248;-91
2022/04/29 08:30:01;;;;;;;3.93;2.90;;;8.10;99.90;;;;;;5057146;28;20243;-92
2022/04/29 08:32:39;;;;;;;4.33;3.00;;;8.10;99.90;;;;;;5057184;28;20205;-90
2022/04/29 08:35:11;;;;;;;3.93;3.10;;;8.00;99.90;;;;;;5042896;28;20229;-90
2022/04/29 08:37:43;;;;;;;3.93;3.00;;;7.90;99.90;;;;;;5041123;28;20240;-90
2022/04/29 08:40:18;;;;;;;4.60;2.93;;;7.80;99.90;;;;;;5041033;28;20243;-90
2022/04/29 08:42:50;;;;;;;3.77;2.90;;;7.70;99.90;;;;;;5040665;28;20259;-90
2022/04/29 08:45:22;;;;;;;3.57;3.10;;;7.60;99.90;;;;;;5041529;28;20209;-90
2022/04/29 08:47:53;;;;;;;4.77;2.87;;;7.60;99.90;;;;;;5040520;28;20205;-87
2022/04/29 08:50:26;;;;;;;5.23;3.40;;;7.60;99.90;;;;;;5040387;28;20201;-88
2022/04/29 08:52:57;;;;;;;4.57;2.77;;;7.50;99.90;;;;;;5038555;28;20223;-91
2022/04/29 08:58:39;;;;;;;4.83;2.83;;;7.40;99.90;;;;;;5040671;28;20208;-90
2022/04/29 09:01:13;;;;;;;4.53;3.07;;;7.40;99.90;;;;;;5040125;28;20213;-90
2022/04/29 09:03:46;;;;;;;3.67;3.00;;;7.30;99.90;;;;;;5039453;28;20236;-90
2022/04/29 09:06:22;;;;;;;3.83;2.83;;;7.30;99.90;;;;;;5039915;28;20263;-90
2022/04/29 09:08:52;;;;;;;4.03;2.70;;;7.30;99.90;;;;;;5038081;28;20218;-89
2022/04/29 09:11:27;;;;;;;4.43;2.77;;;7.20;99.90;;;;;;5039333;28;20299;-90
2022/04/29 09:13:59;;;;;;;4.47;3.10;;;7.20;99.90;;;;;;5037752;28;20287;-90
2022/04/29 09:16:30;;;;;;;3.43;3.00;;;7.20;99.90;;;;;;5037411;28;20211;-91
2022/04/29 09:19:02;;;;;;;4.17;2.77;;;7.20;99.90;;;;;;5038834;28;20217;-91
2022/04/29 09:21:34;;;;;;;3.77;3.07;;;7.20;99.90;;;;;;5038924;28;20209;-90
2022/04/29 09:24:10;;;;;;;3.27;2.57;;;7.10;99.90;;;;;;5042400;28;20260;-90
2022/04/29 09:26:43;;;;;;;4.20;2.90;;;7.10;99.90;;;;;;5049226;28;20228;-90
2022/04/29 09:29:16;;;;;;;3.60;2.80;;;7.10;99.90;;;;;;5054206;28;20258;-90
2022/04/29 09:31:55;;;;;;;5.10;2.80;;;7.10;99.90;;;;;;5048945;28;20212;-90
2022/04/29 09:34:47;;;;;;;3.97;3.20;;;7.00;99.90;;;;;;5059936;28;20647;-91
2022/04/29 09:37:21;;;;;;;4.03;2.90;;;7.00;99.90;;;;;;5064490;28;20230;-93
2022/04/29 09:39:57;;;;;;;3.30;3.00;;;7.00;99.90;;;;;;5073262;28;20330;-90
2022/04/29 09:42:38;;;;;;;4.93;3.30;;;7.00;99.90;;;;;;5075397;28;20224;-90
2022/04/29 09:45:19;;;;;;;3.07;2.67;;;6.90;99.90;;;;;;5072053;28;20297;-90
2022/04/29 09:47:56;;;;;;;5.40;2.97;;;6.90;99.90;;;;;;5046618;28;20205;-90
2022/04/29 09:50:47;;;;;;;6.63;3.63;;;6.90;99.90;;;;;;5054549;28;20221;-90
2022/04/29 09:53:20;;;;;;;5.90;3.17;;;6.90;99.90;;;;;;5051957;28;20638;-90
2022/04/29 09:56:11;;;;;;;6.40;3.20;;;6.90;99.90;;;;;;5050323;28;20671;-90
2022/04/29 09:58:45;;;;;;;5.60;3.60;;;6.80;99.90;;;;;;5048760;28;20211;-90
2022/04/29 10:01:18;;;;;;;4.77;3.23;;;6.80;99.90;;;;;;5048917;28;20205;-89
2022/04/29 10:03:49;;;;;;;5.17;3.20;;;6.80;99.90;;;;;;5042799;28;20598;-90
2022/04/29 10:06:22;;;;;;;5.17;2.97;;;6.80;99.90;;;;;;5038826;28;20207;-90
2022/04/29 10:08:54;;;;;;;3.87;3.13;;;6.80;99.90;;;;;;5037770;28;20205;-90
2022/04/29 10:11:28;;;;;;;3.93;3.20;;;6.80;99.90;;;;;;5037864;28;20215;-89
2022/04/29 10:14:05;;;;;;;4.33;3.10;;;6.70;99.90;;;;;;5038379;28;20555;-90
2022/04/29 10:16:38;;;;;;;5.17;3.10;;;6.70;99.90;;;;;;5041320;28;20200;-90
2022/04/29 10:22:05;;;;;;;4.57;2.60;;;6.60;99.90;;;;;;5041354;28;20212;-90
2022/04/29 10:24:44;;;;;;;4.20;3.20;;;6.60;99.90;;;;;;5044202;28;20260;-89
2022/04/29 10:27:16;;;;;;;5.03;2.90;;;6.50;99.90;;;;;;5050813;28;20204;-93
2022/04/29 10:29:49;;;;;;;4.83;3.10;;;6.50;99.90;;;;;;5039639;28;20217;-89
2022/04/29 10:32:21;;;;;;;4.60;3.47;;;6.50;99.90;;;;;;5039767;28;20556;-89
2022/04/29 10:34:55;;;;;;;5.57;3.50;;;6.50;99.90;;;;;;5037135;28;20278;-90
2022/04/29 10:37:37;;;;;;;3.40;2.70;;;6.40;99.90;;;;;;5037328;28;20227;-90
2022/04/29 10:40:12;;;;;;;3.40;3.10;;;6.40;99.90;;;;;;5037512;28;20205;-90
2022/04/29 10:43:08;;;;;;;5.43;3.10;;;6.40;99.90;;;;;;5037613;28;20726;-90
2022/04/29 10:46:17;;;;;;;3.23;2.70;;;6.30;99.90;;;;;;5036954;28;20274;-90
2022/04/29 10:48:49;;;;;;;4.50;3.37;;;6.40;99.90;;;;;;5036522;28;20255;-90
2022/04/29 10:51:22;;;;;;;4.37;3.23;;;6.40;99.90;;;;;;5037169;28;20240;-89
2022/04/29 10:53:55;;;;;;;6.43;3.57;;;6.40;99.90;;;;;;5037552;28;20213;-90
2022/04/29 10:56:40;;;;;;;3.87;3.47;;;6.40;99.90;;;;;;5055924;23;20250;-90
2022/04/29 10:59:22;;;;;;;3.93;3.53;;;6.40;99.90;;;;;;5016373;28;20214;-91
2022/04/29 11:02:13;;;;;;;6.00;3.60;;;6.50;99.90;;;;;;5017610;28;20700;-90
2022/04/29 11:04:46;;;;;;;4.27;3.33;;;6.60;99.90;;;;;;5017678;28;20230;-91
2022/04/29 11:07:42;;;;;;;5.20;3.60;;;6.60;99.90;;;;;;5017185;28;20198;-93
2022/04/29 11:10:16;;;;;;;4.23;3.60;;;6.80;99.90;;;;;;5018442;28;20222;-90
2022/04/29 11:13:03;;;;;;;6.37;3.80;;;6.80;99.90;;;;;;5019757;28;20263;-90
2022/04/29 11:15:45;;;;;;;5.23;3.77;;;6.90;99.90;;;;;;5020826;28;20208;-90
2022/04/29 11:18:31;;;;;;;4.87;3.77;;;6.90;99.90;;;;;;5019912;28;20277;-90
2022/04/29 11:24:40;;;;;;;4.77;3.70;;;7.00;99.90;;;;;;5020438;28;20236;-90
2022/04/29 11:26:46;;;;;;;4.50;3.80;;;7.10;99.90;;;;;;5020965;28;20219;-90
2022/04/29 11:29:19;;;;;;;4.47;3.40;;;7.10;99.90;;;;;;5020250;28;20210;-90
2022/04/29 11:31:50;;;;;;;4.40;3.70;;;7.20;99.90;;;;;;5020995;28;20901;-90
2022/04/29 11:34:24;;;;;;;3.90;3.50;;;7.20;99.90;;;;;;5019697;28;20257;-90
2022/04/29 11:36:59;;;;;;;5.60;4.03;;;7.20;99.90;;;;;;5019715;28;20207;-90
2022/04/29 11:39:37;;;;;;;5.93;3.70;;;7.20;99.90;;;;;;5024283;28;20217;-90
2022/04/29 11:42:09;;;;;;;6.73;3.37;;;7.30;99.90;;;;;;5030831;28;20233;-90
2022/04/29 11:44:42;;;;;;;4.77;3.80;;;7.30;99.90;;;;;;5012843;28;20233;-90
2022/04/29 11:47:16;;;;;;;5.37;4.10;;;7.30;99.90;;;;;;5002939;28;20646;-92
2022/04/29 11:49:49;;;;;;;5.37;3.30;;;7.40;99.90;;;;;;5002475;28;20283;-90
2022/04/29 11:52:22;;;;;;;4.57;3.87;;;7.40;99.90;;;;;;5001047;28;20226;-91
2022/04/29 11:54:54;;;;;;;4.30;3.40;;;7.40;99.90;;;;;;5005906;28;20251;-90
2022/04/29 11:57:27;;;;;;;5.17;3.77;;;7.40;99.90;;;;;;4999699;28;20242;-91
2022/04/29 11:59:58;;;;;;;4.17;3.77;;;7.40;99.90;;;;;;5001914;28;20213;-91
2022/04/29 12:02:30;;;;;;;5.00;4.27;;;7.50;99.90;;;;;;5000026;28;20225;-91
2022/04/29 12:05:07;;;;;;;4.50;3.80;;;7.50;99.90;;;;;;5000168;28;20237;-90
2022/04/29 12:07:45;;;;;;;4.73;3.90;;;7.50;99.90;;;;;;4999784;28;20213;-90
2022/04/29 12:10:20;;;;;;;4.67;3.53;;;7.40;99.90;;;;;;5001983;28;20714;-90
2022/04/29 12:12:56;;;;;;;6.13;3.87;;;7.40;99.90;;;;;;5002175;28;20226;-91
2022/04/29 12:15:30;;;;;;;3.70;2.97;;;7.40;99.90;;;;;;5001953;28;20332;-90
2022/04/29 12:18:03;;;;;;;6.13;3.80;;;7.50;99.90;;;;;;4999737;28;20227;-90
2022/04/29 12:20:58;;;;;;;6.50;3.60;;;7.40;99.90;;;;;;4999219;28;20198;-90
2022/04/29 12:23:34;;;;;;;6.27;3.70;;;7.50;99.90;;;;;;5000552;28;20214;-90
2022/04/29 12:26:07;;;;;;;4.30;3.50;;;7.40;99.90;;;;;;5004619;28;20237;-91
2022/04/29 12:28:39;;;;;;;6.20;4.13;;;7.40;99.90;;;;;;5020549;28;20678;-90
2022/04/29 12:36:57;;;;;;;5.73;4.40;;;7.40;99.90;;;;;;5019328;28;20213;-91
2022/04/29 12:39:36;;;;;;;5.47;4.17;;;7.40;99.90;;;;;;5022157;28;20667;-90
2022/04/29 12:42:09;;;;;;;5.67;4.20;;;7.40;99.90;;;;;;5019027;28;20214;-90
2022/04/29 12:47:40;;;;;;;4.50;3.43;;;7.50;99.90;;;;;;5020117;28;20208;-91
2022/04/29 12:50:24;;;;;;;5.30;3.80;;;7.50;99.90;;;;;;5022972;28;20270;-91
2022/04/29 12:53:03;;;;;;;3.33;3.03;;;7.50;99.90;;;;;;5000908;28;20221;-90
2022/04/29 12:55:52;;;;;;;4.07;3.77;;;7.60;99.90;;;;;;5007517;28;20221;-89
2022/04/29 12:58:26;;;;;;;5.90;3.80;;;7.60;99.90;;;;;;4999146;28;20206;-91
2022/04/29 13:01:07;;;;;;;4.83;4.10;;;7.60;99.90;;;;;;4999468;28;20237;-90
2022/04/29 13:03:39;;;;;;;4.57;4.00;;;7.70;99.90;;;;;;5011212;28;20218;-89
2022/04/29 13:06:11;;;;;;;4.43;3.20;;;7.70;99.90;;;;;;5022700;28;20384;-88
2022/04/29 13:08:44;;;;;;;6.27;4.00;;;7.70;99.90;;;;;;5019252;28;20249;-89
2022/04/29 13:11:19;;;;;;;4.90;3.67;;;7.70;99.90;;;;;;5022594;28;20245;-89
2022/04/29 13:13:50;;;;;;;4.30;3.57;;;7.70;99.90;;;;;;5023121;28;20224;-89
2022/04/29 13:16:22;;;;;;;4.70;3.50;;;7.70;99.90;;;;;;5024341;28;20271;-90
2022/04/29 13:18:55;;;;;;;5.17;4.03;;;7.70;99.90;;;;;;5025980;28;20218;-88
2022/04/29 13:21:26;;;;;;;4.60;3.40;;;7.70;99.90;;;;;;5034541;28;20227;-88
2022/04/29 13:24:01;;;;;;;5.90;4.00;;;7.70;99.90;;;;;;5027250;28;20352;-88
2022/04/29 13:26:32;;;;;;;4.40;3.50;;;7.70;99.90;;;;;;5020124;28;20227;-89
2022/04/29 13:29:05;;;;;;;4.67;3.80;;;7.80;99.90;;;;;;5019002;28;20287;-89
2022/04/29 13:31:36;;;;;;;6.10;3.87;;;7.80;99.90;;;;;;5017798;28;20299;-89
2022/04/29 13:34:07;;;;;;;4.97;3.93;;;7.90;99.90;;;;;;5019106;28;20272;-90
2022/04/29 13:36:38;;;;;;;3.73;3.33;;;7.90;99.90;;;;;;5018824;28;20209;-89
2022/04/29 13:39:12;;;;;;;4.70;3.83;;;7.90;99.90;;;;;;5017616;28;20225;-89
2022/04/29 13:41:43;;;;;;;3.87;3.47;;;8.00;99.90;;;;;;5019021;28;20316;-90
2022/04/29 13:44:15;;;;;;;6.87;3.63;;;8.10;99.90;;;;;;5018309;28;20214;-90
2022/04/29 13:46:45;;;;;;;5.70;3.70;;;8.10;99.90;;;;;;5018824;28;20214;-88
2022/04/29 13:49:19;;;;;;;4.93;3.50;;;8.10;99.90;;;;;;5021242;28;20224;-89
2022/04/29 13:51:51;;;;;;;4.67;3.97;;;8.10;99.90;;;;;;5025091;28;20212;-90
2022/04/29 13:54:24;;;;;;;4.17;3.77;;;8.10;99.90;;;;;;5032529;28;20191;-90
2022/04/29 13:56:58;;;;;;;5.33;3.40;;;8.00;99.90;;;;;;5036391;28;20199;-87
2022/04/29 13:59:32;;;;;;;3.70;3.33;;;8.10;99.90;;;;;;5030606;28;20221;-89
2022/04/29 14:02:04;;;;;;;4.20;3.80;;;8.10;99.90;;;;;;5031778;28;20205;-88
2022/04/29 14:04:35;;;;;;;4.53;3.60;;;8.10;99.90;;;;;;5033730;28;20228;-89
2022/04/29 14:07:07;;;;;;;4.13;3.73;;;8.00;99.90;;;;;;5024435;28;20221;-89
2022/04/29 14:09:41;;;;;;;7.13;4.07;;;8.10;99.90;;;;;;5020014;28;20224;-89
2022/04/29 14:12:13;;;;;;;4.23;3.63;;;8.20;99.90;;;;;;5019400;28;20237;-89
2022/04/29 14:14:45;;;;;;;4.83;3.77;;;8.30;99.90;;;;;;5019304;28;20268;-89
2022/04/29 14:17:16;;;;;;;3.93;3.50;;;8.30;99.90;;;;;;5017222;28;20210;-90
2022/04/29 14:19:48;;;;;;;4.30;3.73;;;8.40;99.90;;;;;;5019299;28;20209;-89
2022/04/29 14:22:21;;;;;;;4.87;3.37;;;8.40;99.90;;;;;;5020173;28;20272;-90
2022/04/29 14:24:56;;;;;;;5.23;3.90;;;8.40;99.90;;;;;;5019066;28;20240;-90
2022/04/29 14:27:27;;;;;;;6.23;3.83;;;8.30;99.90;;;;;;5003914;28;20210;-90
2022/04/29 14:29:59;;;;;;;4.80;3.13;;;8.30;99.90;;;;;;4998219;28;20270;-89
2022/04/29 14:32:32;;;;;;;5.03;3.73;;;8.20;99.90;;;;;;4997819;28;20206;-90
2022/04/29 14:35:06;;;;;;;5.53;4.27;;;8.00;99.90;;;;;;5016551;28;20213;-89
2022/04/29 14:37:37;;;;;;;6.97;4.27;;;8.00;99.90;;;;;;5021372;28;20209;-89
2022/04/29 14:42:57;;;;;;;3.53;3.23;;;8.10;99.90;;;;;;5029288;28;20221;-90
2022/04/29 14:51:14;;;;;;;3.43;2.60;;;8.60;99.90;;;;;;5026422;28;20262;-89
2022/04/29 14:53:48;;;;;;;2.87;2.57;;;8.90;99.90;;;;;;5014061;28;20202;-90
2022/04/29 14:56:22;;;;;;;3.43;2.40;;;9.00;99.90;;;;;;5013299;28;20218;-89
2022/04/29 14:58:53;;;;;;;4.17;2.70;;;9.00;99.90;;;;;;5013222;28;20229;-90